Time;durP1;ratioP1;P1;durP2;ratioP2;P2;SDS_P1;SDS_P2;PMS_P1;PMS_P2;Temp;Humidity;BMP_temperature;BMP_pressure;BME280_temperature;BME280_humidity;BME280_pressure;Samples;Min_cycle;Max_cycle;Signal;HPM_P1;HPM_P2
2021/01/08 00:00:17;;;;;;;16.48;9.60;;;;;;;1.78;72.55;100545.09;685720;28;7196;-58
2021/01/08 00:00:38;;;;;;;15.57;9.75;;;;;;;1.80;72.50;100544.97;684124;28;68789;-59
2021/01/08 00:00:59;;;;;;;16.48;9.43;;;;;;;1.79;72.60;100540.63;685754;28;23378;-58
2021/01/08 00:01:20;;;;;;;16.08;9.65;;;;;;;1.78;72.55;100537.09;682536;28;22436;-59
2021/01/08 00:01:42;;;;;;;16.77;9.88;;;;;;;1.78;72.45;100545.09;682521;28;41587;-56
2021/01/08 00:02:04;;;;;;;15.02;9.20;;;;;;;1.78;72.59;100539.78;682832;28;19539;-59
2021/01/08 00:02:25;;;;;;;17.45;10.00;;;;;;;1.78;72.56;100538.94;682191;28;46331;-58
2021/01/08 00:02:48;;;;;;;17.08;9.55;;;;;;;1.78;72.56;100539.78;685602;28;23451;-57
2021/01/08 00:03:09;;;;;;;16.80;9.52;;;;;;;1.80;72.68;100542.31;683715;28;69466;-58
2021/01/08 00:03:30;;;;;;;15.77;9.50;;;;;;;1.79;72.49;100537.97;685841;28;22479;-58
2021/01/08 00:03:52;;;;;;;17.05;9.85;;;;;;;1.79;72.62;100538.81;685601;28;22439;-59
2021/01/08 00:04:14;;;;;;;16.88;9.60;;;;;;;1.79;72.64;100538.81;685815;28;21538;-60
2021/01/08 00:04:35;;;;;;;15.63;9.93;;;;;;;1.80;72.59;100542.31;685025;28;46459;-59
2021/01/08 00:04:57;;;;;;;16.50;9.95;;;;;;;1.80;72.55;100542.31;684843;28;46359;-56
2021/01/08 00:05:18;;;;;;;17.73;10.00;;;;;;;1.80;72.60;100543.19;685341;28;22438;-56
2021/01/08 00:05:39;;;;;;;16.48;9.63;;;;;;;1.80;72.59;100536.97;685269;28;22501;-59
2021/01/08 00:06:01;;;;;;;15.65;9.73;;;;;;;1.80;72.65;100542.31;685826;28;7874;-59
2021/01/08 00:06:22;;;;;;;16.65;10.30;;;;;;;1.80;72.52;100534.31;684866;28;43901;-58
2021/01/08 00:06:43;;;;;;;15.25;9.40;;;;;;;1.80;72.55;100545.84;685668;28;23543;-59
2021/01/08 00:07:05;;;;;;;15.20;9.90;;;;;;;1.81;72.58;100541.34;684963;28;44379;-58
2021/01/08 00:07:26;;;;;;;15.13;9.80;;;;;;;1.77;72.61;100535.44;685995;28;22423;-54
2021/01/08 00:07:48;;;;;;;16.23;9.95;;;;;;;1.78;72.68;100539.78;685748;28;22422;-59
2021/01/08 00:08:09;;;;;;;18.02;10.48;;;;;;;1.80;72.39;100540.50;684232;28;46098;-58
2021/01/08 00:08:30;;;;;;;18.67;10.50;;;;;;;1.80;72.52;100542.31;685578;28;14161;-58
2021/01/08 00:08:51;;;;;;;15.75;9.48;;;;;;;1.79;72.60;100535.31;686088;28;7361;-60
2021/01/08 00:09:13;;;;;;;16.60;9.52;;;;;;;1.79;72.69;100536.16;685052;28;46176;-58
2021/01/08 00:09:34;;;;;;;16.75;10.13;;;;;;;1.80;72.66;100534.31;685744;28;21439;-58
2021/01/08 00:09:55;;;;;;;15.18;9.88;;;;;;;1.80;72.52;100539.66;684964;28;44163;-57
2021/01/08 00:10:17;;;;;;;16.55;9.63;;;;;;;1.79;72.63;100532.66;685327;28;22511;-57
2021/01/08 00:10:38;;;;;;;18.48;10.73;;;;;;;1.79;72.75;100537.97;685090;28;46324;-59
2021/01/08 00:11:00;;;;;;;15.98;9.75;;;;;;;1.79;72.59;100533.47;688127;28;22474;-57
2021/01/08 00:11:24;;;;;;;16.08;9.98;;;;;;;1.79;72.66;100538.81;687729;28;22423;-60
2021/01/08 00:11:45;;;;;;;16.40;10.07;;;;;;;1.79;72.65;100538.81;686540;28;83629;-59
2021/01/08 00:12:07;;;;;;;16.80;9.90;;;;;;;1.79;72.93;100540.63;688276;28;23512;-59
2021/01/08 00:12:29;;;;;;;17.10;10.23;;;;;;;1.78;72.66;100537.09;686566;28;69483;-57
2021/01/08 00:12:50;;;;;;;18.05;9.95;;;;;;;1.79;72.74;100536.16;687494;28;46158;-57
2021/01/08 00:13:12;;;;;;;17.40;10.05;;;;;;;1.80;72.91;100534.31;688122;28;23473;-58
2021/01/08 00:13:33;;;;;;;15.93;10.00;;;;;;;1.80;72.77;100529.88;688382;28;21484;-57
2021/01/08 00:13:55;;;;;;;15.02;9.63;;;;;;;1.81;72.63;100538.69;687944;28;22386;-57
2021/01/08 00:14:16;;;;;;;15.30;9.75;;;;;;;1.80;72.61;100534.31;687034;28;47250;-59
2021/01/08 00:14:37;;;;;;;16.58;10.02;;;;;;;1.81;72.71;100541.34;688087;28;22086;-58
2021/01/08 00:15:00;;;;;;;15.23;9.65;;;;;;;1.80;72.71;100543.19;689174;28;1157;-58
2021/01/08 00:15:22;;;;;;;16.70;9.95;;;;;;;1.81;72.68;100536.03;687782;28;44395;-60
2021/01/08 00:15:43;;;;;;;15.25;9.48;;;;;;;1.79;72.59;100533.47;688415;28;22238;-60
2021/01/08 00:16:06;;;;;;;15.63;10.15;;;;;;;1.80;72.54;100540.50;687602;28;45278;-58
2021/01/08 00:16:27;;;;;;;15.52;9.75;;;;;;;1.80;72.76;100532.53;687280;28;47571;-58
2021/01/08 00:16:49;;;;;;;17.10;10.18;;;;;;;1.80;72.71;100536.97;687097;28;45087;-56
2021/01/08 00:17:10;;;;;;;15.77;9.48;;;;;;;1.80;72.65;100537.84;687962;28;23544;-57
2021/01/08 00:17:31;;;;;;;15.02;9.90;;;;;;;1.80;72.68;100539.66;687667;28;44050;-59
2021/01/08 00:17:53;;;;;;;14.70;9.93;;;;;;;1.78;72.62;100534.44;688434;28;23436;-59
2021/01/08 00:18:14;;;;;;;16.00;10.30;;;;;;;1.80;72.80;100539.66;688324;28;22475;-60
2021/01/08 00:18:36;;;;;;;15.45;9.38;;;;;;;1.79;72.80;100546.78;687413;28;46346;-58
2021/01/08 00:18:57;;;;;;;15.18;9.48;;;;;;;1.79;72.75;100537.97;688293;28;22398;-58
2021/01/08 00:19:19;;;;;;;16.70;10.23;;;;;;;1.81;72.61;100538.69;688219;28;22402;-56
2021/01/08 00:19:40;;;;;;;16.98;10.65;;;;;;;1.80;72.73;100531.66;687574;28;45319;-57
2021/01/08 00:20:03;;;;;;;16.60;10.05;;;;;;;1.80;72.72;100534.31;687648;28;46494;-58
2021/01/08 00:20:24;;;;;;;16.70;10.50;;;;;;;1.82;72.70;100536.84;688206;28;22004;-59
2021/01/08 00:20:45;;;;;;;18.23;10.65;;;;;;;1.81;72.72;100536.03;687745;28;44399;-56
2021/01/08 00:21:06;;;;;;;17.48;10.57;;;;;;;1.82;72.68;100534.19;687886;28;23285;-61
2021/01/08 00:21:36;;;;;;;16.45;9.82;;;;;;;1.83;72.56;100538.56;688253;28;21520;-60
2021/01/08 00:21:58;;;;;;;15.40;9.63;;;;;;;1.82;72.62;100534.19;684693;28;137955;-60
2021/01/08 00:22:19;;;;;;;13.57;9.10;;;;;;;1.81;72.60;100530.69;687778;28;22238;-61
2021/01/08 00:22:41;;;;;;;14.98;9.52;;;;;;;1.80;72.62;100535.19;688339;28;23750;-59
2021/01/08 00:23:02;;;;;;;15.80;10.07;;;;;;;1.80;72.66;100527.19;688373;28;22358;-60
2021/01/08 00:23:24;;;;;;;15.45;10.20;;;;;;;1.81;72.66;100541.34;687750;28;46406;-60
2021/01/08 00:23:47;;;;;;;14.43;9.95;;;;;;;1.80;72.75;100534.31;687437;28;22463;-57
2021/01/08 00:24:09;;;;;;;15.38;9.80;;;;;;;1.81;72.71;100533.34;686126;28;92285;-57
2021/01/08 00:24:31;;;;;;;15.70;9.48;;;;;;;1.80;72.74;100537.84;687326;28;40658;-56
2021/01/08 00:24:53;;;;;;;15.80;10.05;;;;;;;1.81;72.73;100530.69;687011;28;46396;-57
2021/01/08 00:25:14;;;;;;;15.98;9.60;;;;;;;1.80;72.68;100527.19;688140;28;22378;-56
2021/01/08 00:25:35;;;;;;;15.77;9.73;;;;;;;1.80;72.61;100534.31;687623;28;46410;-56
2021/01/08 00:25:56;;;;;;;15.68;9.80;;;;;;;1.80;72.65;100534.31;688858;28;9300;-57
2021/01/08 00:26:22;;;;;;;15.38;9.95;;;;;;;1.80;72.73;100535.19;689213;28;2508;-58
2021/01/08 00:26:44;;;;;;;15.85;9.85;;;;;;;1.80;72.76;100534.31;684722;28;136764;-56
2021/01/08 00:27:05;;;;;;;17.00;10.18;;;;;;;1.81;72.62;100530.69;688366;28;23437;-57
2021/01/08 00:27:26;;;;;;;16.60;10.05;;;;;;;1.80;72.77;100535.19;687531;28;44362;-57
2021/01/08 00:27:48;;;;;;;17.50;9.88;;;;;;;1.82;72.60;100531.53;686042;28;22451;-58
2021/01/08 00:28:09;;;;;;;19.13;10.13;;;;;;;1.80;72.73;100529.88;684916;28;45363;-59
2021/01/08 00:28:30;;;;;;;17.10;10.30;;;;;;;1.81;72.78;100530.69;685396;28;22475;-57
2021/01/08 00:28:52;;;;;;;17.55;10.55;;;;;;;1.81;72.76;100536.03;685660;28;23487;-57
2021/01/08 00:29:14;;;;;;;16.02;10.15;;;;;;;1.80;72.74;100531.66;684843;28;46299;-60
2021/01/08 00:29:35;;;;;;;17.75;10.38;;;;;;;1.80;72.65;100540.50;685278;28;44488;-59
2021/01/08 00:29:57;;;;;;;15.43;10.10;;;;;;;1.83;72.66;100539.41;688318;28;22441;-61
2021/01/08 00:30:18;;;;;;;17.30;10.13;;;;;;;1.82;72.64;100540.38;687546;28;46426;-61
2021/01/08 00:30:39;;;;;;;18.45;10.45;;;;;;;1.81;72.59;100536.03;688247;28;22344;-59
2021/01/08 00:31:01;;;;;;;18.63;10.73;;;;;;;1.82;72.68;100536.84;687836;28;23538;-59
2021/01/08 00:31:23;;;;;;;19.30;10.57;;;;;;;1.82;72.70;100536.84;687448;28;45213;-60
2021/01/08 00:31:45;;;;;;;17.15;10.20;;;;;;;1.80;72.58;100537.84;687547;28;47591;-59
2021/01/08 00:32:09;;;;;;;16.05;10.07;;;;;;;1.82;72.47;100536.84;689064;28;892;-60
2021/01/08 00:32:30;;;;;;;16.45;9.73;;;;;;;1.82;72.64;100543.06;685658;28;90379;-60
2021/01/08 00:32:51;;;;;;;15.13;9.57;;;;;;;1.80;72.66;100531.66;688220;28;22261;-57
2021/01/08 00:33:13;;;;;;;15.73;9.73;;;;;;;1.81;72.74;100541.34;688155;28;23424;-57
2021/01/08 00:33:34;;;;;;;16.80;10.27;;;;;;;1.80;72.71;100534.31;687054;28;46545;-59
2021/01/08 00:33:55;;;;;;;17.92;10.57;;;;;;;1.79;72.61;100538.81;688466;28;22379;-60
2021/01/08 00:34:18;;;;;;;19.65;10.80;;;;;;;1.80;72.83;100540.50;687539;28;46326;-60
2021/01/08 00:34:40;;;;;;;18.40;10.80;;;;;;;1.82;72.71;100536.84;686247;28;69436;-59
2021/01/08 00:35:02;;;;;;;19.77;10.88;;;;;;;1.80;72.77;100529.88;688107;28;22416;-58
2021/01/08 00:35:23;;;;;;;18.45;10.27;;;;;;;1.80;72.67;100529.00;687309;28;44395;-57
2021/01/08 00:35:44;;;;;;;16.83;10.40;;;;;;;1.80;72.75;100536.97;688497;28;21548;-60
2021/01/08 00:36:06;;;;;;;16.17;9.93;;;;;;;1.79;72.64;100536.16;688343;28;23499;-60
2021/01/08 00:36:27;;;;;;;17.20;10.38;;;;;;;1.80;72.67;100537.84;686735;28;46910;-56
2021/01/08 00:36:50;;;;;;;17.88;10.57;;;;;;;1.80;72.72;100537.84;688506;28;22409;-59
2021/01/08 00:37:11;;;;;;;16.40;10.10;;;;;;;1.80;72.75;100534.31;686723;28;68349;-58
2021/01/08 00:37:34;;;;;;;17.20;10.25;;;;;;;1.80;72.66;100532.53;687325;28;46341;-59
2021/01/08 00:37:55;;;;;;;16.70;10.13;;;;;;;1.80;72.78;100531.66;687372;28;46335;-57
2021/01/08 00:38:17;;;;;;;16.92;10.18;;;;;;;1.79;72.74;100536.16;688359;28;22374;-58
2021/01/08 00:38:38;;;;;;;19.38;10.55;;;;;;;1.79;72.81;100536.16;687653;28;41876;-60
2021/01/08 00:38:59;;;;;;;16.95;10.48;;;;;;;1.79;72.86;100533.47;688374;28;22419;-58
2021/01/08 00:39:22;;;;;;;17.63;10.00;;;;;;;1.80;72.84;100537.84;687300;28;45256;-60
2021/01/08 00:39:44;;;;;;;19.13;10.82;;;;;;;1.80;72.78;100535.19;687081;28;45291;-59
2021/01/08 00:40:06;;;;;;;17.60;10.85;;;;;;;1.81;72.65;100536.03;687635;28;44398;-60
2021/01/08 00:40:28;;;;;;;17.17;10.20;;;;;;;1.82;72.64;100539.53;686232;28;67511;-59
2021/01/08 00:40:49;;;;;;;17.15;10.00;;;;;;;1.81;72.83;100536.03;688567;28;1325;-59
2021/01/08 00:41:11;;;;;;;17.48;10.60;;;;;;;1.81;72.78;100536.03;687553;28;46308;-60
2021/01/08 00:41:34;;;;;;;17.88;10.27;;;;;;;1.82;72.64;100537.72;688099;28;23451;-59
2021/01/08 00:41:55;;;;;;;18.13;10.88;;;;;;;1.82;72.83;100540.38;686858;28;65241;-58
2021/01/08 00:42:16;;;;;;;18.45;10.52;;;;;;;1.83;72.67;100538.56;688102;28;22246;-58
2021/01/08 00:42:37;;;;;;;18.35;10.20;;;;;;;1.83;72.78;100533.22;688030;28;21463;-59
2021/01/08 00:42:59;;;;;;;17.45;10.88;;;;;;;1.82;72.74;100535.06;684269;28;46292;-58
2021/01/08 00:43:20;;;;;;;18.30;10.48;;;;;;;1.82;72.83;100531.53;684128;28;45399;-60
2021/01/08 00:43:42;;;;;;;18.10;9.90;;;;;;;1.82;72.67;100532.41;684745;28;23431;-57
2021/01/08 00:44:04;;;;;;;17.40;10.50;;;;;;;1.81;72.60;100536.03;685633;28;23454;-58
2021/01/08 00:44:25;;;;;;;18.17;10.50;;;;;;;1.82;72.70;100539.53;684793;28;37005;-57
2021/01/08 00:44:47;;;;;;;16.42;10.85;;;;;;;1.83;72.73;100535.91;685327;28;46416;-57
2021/01/08 00:45:09;;;;;;;17.20;10.77;;;;;;;1.82;72.69;100535.06;688141;28;21575;-58
2021/01/08 00:45:30;;;;;;;20.08;10.60;;;;;;;1.82;72.67;100539.53;687697;28;44424;-61
2021/01/08 00:45:51;;;;;;;18.33;10.48;;;;;;;1.82;72.68;100534.19;688133;28;21541;-59
2021/01/08 00:46:12;;;;;;;16.73;10.10;;;;;;;1.82;72.59;100536.84;684113;28;44370;-60
2021/01/08 00:46:36;;;;;;;18.50;10.85;;;;;;;1.81;72.64;100536.03;683155;28;22388;-57
2021/01/08 00:46:57;;;;;;;18.83;11.18;;;;;;;1.83;72.78;100543.88;677979;29;69472;-60
2021/01/08 00:47:18;;;;;;;17.15;10.45;;;;;;;1.83;72.53;100538.56;677490;29;21544;-59
2021/01/08 00:47:39;;;;;;;16.83;10.40;;;;;;;1.82;72.60;100535.06;674499;29;44351;-59
2021/01/08 00:48:01;;;;;;;16.60;9.85;;;;;;;1.81;72.75;100536.03;675445;29;958;-58
2021/01/08 00:48:23;;;;;;;16.83;10.13;;;;;;;1.80;72.67;100535.19;676973;29;46389;-59
2021/01/08 00:48:44;;;;;;;16.20;10.20;;;;;;;1.81;72.64;100536.03;679214;29;22417;-59
2021/01/08 00:49:06;;;;;;;17.40;11.32;;;;;;;1.83;72.71;100543.88;680988;28;21582;-59
2021/01/08 00:49:28;;;;;;;18.38;11.38;;;;;;;1.82;72.61;100534.19;683500;28;20860;-58
2021/01/08 00:49:51;;;;;;;18.85;10.85;;;;;;;1.81;72.67;100538.69;680397;28;78380;-59
2021/01/08 00:50:13;;;;;;;18.73;10.88;;;;;;;1.80;72.71;100534.31;682926;28;23551;-60
2021/01/08 00:50:34;;;;;;;18.65;11.38;;;;;;;1.81;72.62;100536.03;682773;28;46401;-59
2021/01/08 00:51:00;;;;;;;16.73;10.57;;;;;;;1.82;72.73;100535.06;680963;28;44410;-59
2021/01/08 00:51:22;;;;;;;15.35;9.85;;;;;;;1.80;72.74;100535.19;678962;29;90320;-59
2021/01/08 00:51:44;;;;;;;17.33;10.20;;;;;;;1.82;72.60;100537.72;677792;29;68364;-59
2021/01/08 00:52:06;;;;;;;17.25;10.73;;;;;;;1.82;72.70;100537.72;678008;29;41749;-60
2021/01/08 00:52:28;;;;;;;18.15;11.25;;;;;;;1.83;72.70;100535.91;677113;29;45402;-58
2021/01/08 00:52:49;;;;;;;17.33;10.32;;;;;;;1.82;72.70;100539.53;679551;29;21548;-59
2021/01/08 00:53:11;;;;;;;17.55;10.18;;;;;;;1.82;72.70;100540.38;677291;29;44381;-60
2021/01/08 00:53:33;;;;;;;19.20;10.77;;;;;;;1.82;72.73;100534.19;677269;29;46517;-60
2021/01/08 00:53:54;;;;;;;20.15;11.20;;;;;;;1.81;72.67;100530.69;681793;28;1157;-57
2021/01/08 00:54:23;;;;;;;19.17;11.18;;;;;;;1.82;72.59;100535.06;679815;29;61457;-60
2021/01/08 00:54:53;;;;;;;18.23;10.65;;;;;;;1.82;72.67;100540.38;674830;29;137633;-57
2021/01/08 00:55:30;;;;;;;17.75;11.02;;;;;;;1.82;72.70;100540.38;679011;28;137513;-59
2021/01/08 00:55:58;;;;;;;18.30;11.02;;;;;;;1.82;72.85;100537.72;677477;28;138319;-58
2021/01/08 00:56:21;;;;;;;17.70;10.73;;;;;;;1.83;72.72;100528.75;683257;28;10568;-57
2021/01/08 00:56:46;;;;;;;19.75;10.93;;;;;;;1.83;72.43;100533.22;681909;28;88039;-58
2021/01/08 00:57:24;;;;;;;18.67;10.85;;;;;;;1.83;72.62;100533.22;678199;28;138800;-56
2021/01/08 00:57:45;;;;;;;17.23;10.75;;;;;;;1.84;72.69;100534.94;680145;28;46406;-60
2021/01/08 00:58:07;;;;;;;17.42;10.63;;;;;;;1.84;72.59;100541.09;683362;28;22163;-58
2021/01/08 00:58:28;;;;;;;18.63;10.70;;;;;;;1.85;72.54;100536.59;683009;28;44440;-60
2021/01/08 00:58:50;;;;;;;18.10;10.63;;;;;;;1.84;72.63;100537.59;684206;28;23573;-58
2021/01/08 00:59:11;;;;;;;18.27;10.88;;;;;;;1.83;72.62;100533.22;684490;28;23447;-59
2021/01/08 00:59:32;;;;;;;19.17;11.13;;;;;;;1.83;72.60;100530.56;686425;28;46374;-58
2021/01/08 00:59:54;;;;;;;18.83;11.38;;;;;;;1.83;72.57;100533.22;688335;28;23473;-60
2021/01/08 01:00:16;;;;;;;16.48;10.57;;;;;;;1.83;72.58;100527.91;687309;28;46329;-58
2021/01/08 01:00:37;;;;;;;18.48;11.10;;;;;;;1.82;72.64;100528.88;686954;28;45892;-56
2021/01/08 01:00:59;;;;;;;19.13;11.13;;;;;;;1.82;72.76;100532.41;687961;28;22430;-57
2021/01/08 01:01:20;;;;;;;18.20;10.30;;;;;;;1.82;72.61;100528.88;687506;28;45333;-59
2021/01/08 01:01:41;;;;;;;18.95;10.93;;;;;;;1.83;72.51;100530.56;688985;28;5834;-59
2021/01/08 01:02:03;;;;;;;18.17;10.65;;;;;;;1.82;72.75;100529.75;688265;28;23099;-56
2021/01/08 01:02:24;;;;;;;17.27;11.07;;;;;;;1.83;72.79;100530.56;686975;28;47226;-59
2021/01/08 01:02:46;;;;;;;17.88;11.13;;;;;;;1.83;72.73;100527.91;688290;28;22825;-56
2021/01/08 01:03:07;;;;;;;18.75;11.00;;;;;;;1.83;72.69;100533.22;687750;28;46437;-56
2021/01/08 01:03:28;;;;;;;20.73;11.32;;;;;;;1.82;72.77;100523.53;688588;28;22188;-58
2021/01/08 01:03:50;;;;;;;19.48;11.35;;;;;;;1.82;72.64;100529.75;689408;28;997;-60
2021/01/08 01:04:11;;;;;;;19.42;11.82;;;;;;;1.82;72.74;100531.53;687454;28;46305;-56
2021/01/08 01:04:34;;;;;;;18.88;11.80;;;;;;;1.82;72.56;100535.06;688251;28;21559;-60
2021/01/08 01:04:55;;;;;;;17.58;10.70;;;;;;;1.82;72.70;100534.19;685549;28;70405;-58
2021/01/08 01:05:17;;;;;;;19.42;10.98;;;;;;;1.82;72.59;100531.53;687594;28;23471;-57
2021/01/08 01:05:41;;;;;;;21.38;11.63;;;;;;;1.82;72.57;100526.19;687484;28;44414;-59
2021/01/08 01:06:02;;;;;;;19.27;11.23;;;;;;;1.80;72.33;100529.00;685903;28;92087;-56
2021/01/08 01:06:25;;;;;;;18.27;11.02;;;;;;;1.82;72.74;100529.75;687918;28;1136;-57
2021/01/08 01:06:47;;;;;;;20.45;11.75;;;;;;;1.81;72.64;100530.69;686253;28;69380;-58
2021/01/08 01:07:08;;;;;;;22.52;11.32;;;;;;;1.80;72.71;100535.19;687760;28;46055;-58
2021/01/08 01:07:29;;;;;;;19.20;11.07;;;;;;;1.82;72.71;100531.53;688335;28;23520;-57
2021/01/08 01:07:50;;;;;;;20.45;11.57;;;;;;;1.82;72.64;100534.19;688309;28;23471;-56
2021/01/08 01:08:12;;;;;;;17.98;11.18;;;;;;;1.81;72.63;100536.03;688294;28;21543;-59
2021/01/08 01:08:33;;;;;;;18.20;10.80;;;;;;;1.80;72.77;100537.84;687286;28;45277;-58
2021/01/08 01:08:56;;;;;;;19.47;10.83;;;;;;;1.80;72.65;100537.84;688230;28;21609;-55
2021/01/08 01:09:17;;;;;;;20.58;11.43;;;;;;;1.80;72.72;100527.19;686204;28;69053;-58
2021/01/08 01:09:38;;;;;;;19.48;11.02;;;;;;;1.80;72.73;100529.88;688360;28;21554;-59
2021/01/08 01:10:00;;;;;;;17.13;10.60;;;;;;;1.80;73.02;100527.19;688393;28;22401;-61
2021/01/08 01:10:21;;;;;;;17.98;10.90;;;;;;;1.80;72.60;100535.19;687261;28;46379;-60
2021/01/08 01:10:42;;;;;;;17.13;10.80;;;;;;;1.81;72.59;100536.03;688118;28;22504;-60
2021/01/08 01:11:05;;;;;;;18.42;11.00;;;;;;;1.80;72.67;100534.31;689307;28;966;-60
2021/01/08 01:11:28;;;;;;;19.63;11.48;;;;;;;1.80;72.60;100535.19;686548;28;67515;-57
2021/01/08 01:11:50;;;;;;;16.95;10.95;;;;;;;1.80;72.61;100536.97;688627;28;903;-61
2021/01/08 01:12:12;;;;;;;17.75;10.75;;;;;;;1.80;72.63;100531.66;688903;28;858;-56
2021/01/08 01:12:33;;;;;;;17.92;11.15;;;;;;;1.81;72.74;100544.00;688467;28;11983;-58
2021/01/08 01:12:55;;;;;;;16.75;10.73;;;;;;;1.81;72.65;100541.34;687418;28;44480;-54
2021/01/08 01:13:16;;;;;;;17.27;10.93;;;;;;;1.81;72.63;100541.34;687530;28;12131;-58
2021/01/08 01:13:37;;;;;;;18.42;11.35;;;;;;;1.80;72.63;100540.50;688552;28;23493;-55
2021/01/08 01:13:59;;;;;;;18.50;10.70;;;;;;;1.81;72.67;100533.34;687052;28;46285;-56
2021/01/08 01:14:20;;;;;;;20.38;11.10;;;;;;;1.81;72.58;100538.69;688223;28;21661;-54
2021/01/08 01:14:42;;;;;;;19.30;11.07;;;;;;;1.81;72.70;100536.03;688715;28;11035;-53
2021/01/08 01:15:04;;;;;;;18.95;11.48;;;;;;;1.80;72.61;100540.50;687650;28;40575;-54
2021/01/08 01:15:26;;;;;;;18.83;11.25;;;;;;;1.80;72.64;100537.84;687730;28;47649;-58
2021/01/08 01:15:47;;;;;;;19.13;11.30;;;;;;;1.79;72.78;100536.16;685930;28;20041;-56
2021/01/08 01:16:09;;;;;;;19.00;11.87;;;;;;;1.79;72.76;100536.16;685470;28;22484;-55
2021/01/08 01:16:30;;;;;;;18.25;11.10;;;;;;;1.79;72.70;100535.31;684513;28;46473;-58
2021/01/08 01:16:52;;;;;;;19.35;11.38;;;;;;;1.79;72.67;100541.47;684722;28;47261;-57
2021/01/08 01:17:13;;;;;;;20.38;12.05;;;;;;;1.79;72.84;100530.81;685232;28;23526;-58
2021/01/08 01:17:39;;;;;;;17.75;11.57;;;;;;;1.79;72.92;100537.97;686373;28;1914;-60
2021/01/08 01:18:00;;;;;;;18.00;11.48;;;;;;;1.78;72.90;100534.44;685836;28;95056;-59
2021/01/08 01:18:21;;;;;;;18.88;11.40;;;;;;;1.78;72.77;100537.09;688210;28;22396;-56
2021/01/08 01:18:43;;;;;;;18.95;11.60;;;;;;;1.78;72.73;100530.94;687602;28;46502;-58
2021/01/08 01:19:05;;;;;;;19.02;11.93;;;;;;;1.77;72.69;100535.44;686947;28;46330;-59
2021/01/08 01:19:26;;;;;;;19.58;11.52;;;;;;;1.78;72.74;100538.94;689045;28;1000;-60
2021/01/08 01:19:54;;;;;;;20.60;11.90;;;;;;;1.78;72.79;100534.44;687226;28;61593;-59
2021/01/08 01:20:15;;;;;;;19.10;11.27;;;;;;;1.77;72.94;100540.75;687509;28;45393;-57
2021/01/08 01:20:36;;;;;;;19.35;11.60;;;;;;;1.78;72.87;100533.59;688221;28;21433;-59
2021/01/08 01:20:58;;;;;;;19.33;10.77;;;;;;;1.78;72.82;100536.28;687627;28;45345;-57
2021/01/08 01:21:19;;;;;;;18.15;11.13;;;;;;;1.77;72.96;100538.09;688302;28;16091;-57
2021/01/08 01:21:41;;;;;;;19.33;11.48;;;;;;;1.78;72.80;100545.09;688591;28;929;-59
2021/01/08 01:22:02;;;;;;;19.08;11.82;;;;;;;1.78;72.95;100536.28;688003;28;21662;-58
2021/01/08 01:22:24;;;;;;;18.58;11.80;;;;;;;1.77;72.79;100535.44;686735;28;36120;-55
2021/01/08 01:22:45;;;;;;;19.98;11.82;;;;;;;1.79;72.93;100535.31;686848;28;61393;-55
2021/01/08 01:23:07;;;;;;;21.58;12.02;;;;;;;1.78;72.87;100536.28;688287;28;22413;-60
2021/01/08 01:23:28;;;;;;;22.40;12.07;;;;;;;1.78;72.88;100537.09;688168;28;21583;-59
2021/01/08 01:23:50;;;;;;;19.52;12.13;;;;;;;1.79;72.89;100536.16;688227;28;24368;-56
2021/01/08 01:24:11;;;;;;;17.17;11.10;;;;;;;1.78;72.81;100531.78;687028;28;44442;-56
2021/01/08 01:24:32;;;;;;;19.05;11.60;;;;;;;1.78;72.90;100539.78;687550;28;44408;-59
2021/01/08 01:24:53;;;;;;;18.95;11.50;;;;;;;1.78;72.84;100537.09;688143;28;22247;-60
2021/01/08 01:25:15;;;;;;;18.67;11.27;;;;;;;1.78;72.78;100541.59;687999;28;23423;-59
2021/01/08 01:25:36;;;;;;;19.92;11.82;;;;;;;1.78;72.79;100549.59;688369;28;22115;-57
2021/01/08 01:25:58;;;;;;;19.33;12.25;;;;;;;1.77;72.86;100543.44;687469;28;46353;-57
2021/01/08 01:26:19;;;;;;;17.75;11.18;;;;;;;1.77;73.03;100543.44;687193;28;23498;-59
2021/01/08 01:26:41;;;;;;;19.05;11.45;;;;;;;1.78;72.85;100541.59;688467;28;23527;-59
2021/01/08 01:27:02;;;;;;;19.75;11.90;;;;;;;1.77;72.88;100535.44;687802;28;46299;-58
2021/01/08 01:27:23;;;;;;;18.58;11.43;;;;;;;1.79;73.09;100543.31;688034;28;23452;-59
2021/01/08 01:27:44;;;;;;;19.00;11.63;;;;;;;1.77;72.93;100548.75;689079;28;874;-60
2021/01/08 01:28:06;;;;;;;19.48;11.45;;;;;;;1.77;72.89;100540.75;688461;28;21529;-60
2021/01/08 01:28:27;;;;;;;17.27;10.93;;;;;;;1.78;72.88;100538.94;688185;28;21611;-59
2021/01/08 01:28:49;;;;;;;19.27;11.30;;;;;;;1.78;73.01;100538.94;687718;28;44385;-60
2021/01/08 01:29:10;;;;;;;19.08;11.57;;;;;;;1.76;72.96;100539.06;688168;28;21602;-57
2021/01/08 01:29:31;;;;;;;19.67;11.60;;;;;;;1.78;72.84;100536.28;687249;28;46349;-55
2021/01/08 01:29:53;;;;;;;19.13;11.20;;;;;;;1.80;72.79;100536.97;688587;28;23393;-57
2021/01/08 01:30:17;;;;;;;19.23;11.35;;;;;;;1.78;72.78;100539.78;686964;28;46339;-59
2021/01/08 01:30:38;;;;;;;20.95;11.65;;;;;;;1.79;72.75;100543.31;685706;28;92154;-57
2021/01/08 01:31:00;;;;;;;20.48;11.75;;;;;;;1.79;72.86;100538.81;688347;28;23435;-57
2021/01/08 01:31:22;;;;;;;18.85;11.35;;;;;;;1.78;72.90;100542.44;687486;28;46431;-56
2021/01/08 01:31:43;;;;;;;19.50;11.95;;;;;;;1.79;72.86;100540.63;688106;28;22736;-58
2021/01/08 01:32:04;;;;;;;19.95;11.63;;;;;;;1.78;72.79;100542.44;687408;28;44504;-56
2021/01/08 01:32:25;;;;;;;19.88;11.70;;;;;;;1.78;72.95;100537.09;687781;28;22338;-55
2021/01/08 01:32:47;;;;;;;17.00;11.15;;;;;;;1.78;72.87;100539.78;687322;28;43594;-59
2021/01/08 01:33:08;;;;;;;19.15;11.90;;;;;;;1.79;73.00;100541.47;688612;28;21500;-58
2021/01/08 01:33:30;;;;;;;18.05;11.88;;;;;;;1.79;72.79;100544.13;688189;28;22212;-58
2021/01/08 01:33:51;;;;;;;18.70;12.10;;;;;;;1.78;72.97;100545.09;687482;28;44382;-56
2021/01/08 01:34:12;;;;;;;19.23;11.77;;;;;;;1.79;72.89;100537.97;688292;28;22283;-60
2021/01/08 01:34:34;;;;;;;18.80;11.10;;;;;;;1.77;72.93;100535.44;688205;28;23495;-60
2021/01/08 01:34:56;;;;;;;17.48;10.73;;;;;;;1.78;72.99;100546.91;687305;28;46366;-59
2021/01/08 01:35:18;;;;;;;19.67;11.52;;;;;;;1.78;73.02;100538.94;687118;28;45168;-60
2021/01/08 01:35:39;;;;;;;19.10;11.35;;;;;;;1.78;72.94;100541.59;686367;28;45280;-57
2021/01/08 01:36:04;;;;;;;18.85;11.35;;;;;;;1.78;72.90;100539.78;687462;28;22440;-57
2021/01/08 01:36:25;;;;;;;18.23;11.30;;;;;;;1.78;72.94;100539.78;685008;28;115073;-58
2021/01/08 01:36:47;;;;;;;20.55;11.38;;;;;;;1.79;72.88;100541.47;688182;28;23732;-58
2021/01/08 01:37:08;;;;;;;19.33;11.15;;;;;;;1.78;72.92;100541.59;687338;28;45169;-59
2021/01/08 01:37:29;;;;;;;19.85;11.52;;;;;;;1.79;73.03;100544.13;688368;28;23301;-56
2021/01/08 01:37:51;;;;;;;22.40;12.13;;;;;;;1.79;73.09;100546.78;688203;28;19651;-59
2021/01/08 01:38:13;;;;;;;22.75;12.27;;;;;;;1.80;72.87;100542.31;687309;28;45612;-57
2021/01/08 01:38:34;;;;;;;21.50;11.63;;;;;;;1.79;72.94;100537.97;687565;28;46116;-57
2021/01/08 01:38:56;;;;;;;17.80;11.18;;;;;;;1.79;72.99;100540.63;688114;28;23532;-58
2021/01/08 01:39:17;;;;;;;19.85;11.50;;;;;;;1.79;72.88;100540.63;687248;28;37119;-59
2021/01/08 01:39:39;;;;;;;20.13;11.77;;;;;;;1.78;72.94;100538.94;688238;28;22378;-58
2021/01/08 01:40:00;;;;;;;20.15;11.75;;;;;;;1.79;72.97;100537.97;687480;28;46437;-60
2021/01/08 01:40:21;;;;;;;19.55;11.48;;;;;;;1.78;72.87;100538.94;688218;28;23503;-56
2021/01/08 01:40:43;;;;;;;20.70;11.88;;;;;;;1.79;72.96;100540.63;687295;28;46336;-60
2021/01/08 01:41:04;;;;;;;19.55;11.35;;;;;;;1.78;72.94;100538.94;688428;28;22401;-56
2021/01/08 01:41:26;;;;;;;18.67;11.52;;;;;;;1.78;72.89;100541.59;687424;28;47189;-57
2021/01/08 01:41:47;;;;;;;18.75;12.00;;;;;;;1.77;72.89;100537.22;687923;28;23757;-58
2021/01/08 01:42:09;;;;;;;20.63;11.48;;;;;;;1.77;72.88;100535.44;688123;28;22377;-60